createdAt,value
2019-03-20T00:00:59.209Z,58.13
2019-03-20T00:03:47.852Z,57.95
2019-03-20T00:06:36.283Z,57.90
2019-03-20T00:09:24.747Z,57.23
2019-03-20T00:12:13.210Z,57.14
2019-03-20T00:15:01.326Z,58.18
2019-03-20T00:17:49.833Z,58.39
2019-03-20T00:20:38.374Z,58.21
2019-03-20T00:23:27.514Z,57.78
2019-03-20T00:26:16.393Z,57.76
2019-03-20T00:29:05.024Z,59.17
2019-03-20T00:31:53.900Z,59.40
2019-03-20T00:34:43.046Z,59.25
2019-03-20T00:37:31.996Z,58.91
2019-03-20T00:40:20.247Z,58.72
2019-03-20T00:43:08.874Z,58.94
2019-03-20T00:45:57.877Z,59.32
2019-03-20T00:48:46.668Z,59.32
2019-03-20T00:51:35.748Z,59.40
2019-03-20T00:54:23.985Z,59.02
2019-03-20T00:57:12.796Z,59.45
2019-03-20T01:00:01.256Z,59.35
2019-03-20T01:02:50.180Z,59.27
2019-03-20T01:05:39.025Z,58.73
2019-03-20T01:08:28.075Z,58.46
2019-03-20T01:11:16.147Z,59.53
2019-03-20T01:14:04.242Z,61.18
2019-03-20T01:16:53.378Z,60.65
2019-03-20T01:19:41.887Z,60.63
2019-03-20T01:22:30.566Z,60.15
2019-03-20T01:25:19.240Z,59.51
2019-03-20T01:28:07.707Z,59.59
2019-03-20T01:30:55.915Z,59.15
2019-03-20T01:33:44.707Z,59.61
2019-03-20T01:36:33.546Z,59.42
2019-03-20T01:39:22.084Z,59.04
2019-03-20T01:42:10.310Z,58.84
2019-03-20T01:44:59.068Z,58.64
2019-03-20T01:47:47.486Z,58.68
2019-03-20T01:50:35.747Z,58.81
2019-03-20T01:53:24.698Z,58.91
2019-03-20T01:56:13.178Z,59.28
2019-03-20T01:59:02.840Z,59.30
2019-03-20T02:01:52.125Z,59.69
2019-03-20T02:04:40.366Z,59.72
2019-03-20T02:07:29.286Z,59.60
2019-03-20T02:10:17.786Z,60.07
2019-03-20T02:13:06.573Z,59.91
2019-03-20T02:15:54.884Z,59.95
2019-03-20T02:18:43.246Z,59.83
2019-03-20T02:21:31.270Z,60.00
2019-03-20T02:24:20.365Z,60.18
2019-03-20T02:27:10.030Z,60.87
2019-03-20T02:29:59.022Z,60.60
2019-03-20T02:32:47.147Z,60.38
2019-03-20T02:35:50.275Z,60.27
2019-03-20T02:38:25.793Z,60.31
2019-03-20T02:41:14.470Z,60.32
2019-03-20T02:44:02.360Z,60.59
2019-03-20T02:46:51.012Z,60.22
2019-03-20T02:49:39.881Z,60.17
2019-03-20T02:52:28.755Z,60.37
2019-03-20T02:55:17.930Z,60.37
2019-03-20T02:58:06.522Z,60.41
2019-03-20T03:00:55.413Z,60.44
2019-03-20T03:03:44.074Z,60.37
2019-03-20T03:06:33.033Z,60.75
2019-03-20T03:09:21.653Z,60.89
2019-03-20T03:12:13.305Z,61.15
2019-03-20T03:15:02.098Z,61.30
2019-03-20T03:17:50.651Z,61.34
2019-03-20T03:20:38.931Z,61.33
2019-03-20T03:23:27.343Z,61.14
2019-03-20T03:26:16.127Z,61.14
2019-03-20T03:29:04.760Z,61.56
2019-03-20T03:31:53.164Z,61.35
2019-03-20T03:34:41.535Z,61.12
2019-03-20T03:37:30.128Z,61.14
2019-03-20T03:40:18.847Z,61.14
2019-03-20T03:43:06.903Z,61.28
2019-03-20T03:45:55.434Z,61.47
2019-03-20T03:48:44.172Z,61.43
2019-03-20T03:51:33.417Z,61.28
2019-03-20T03:54:22.046Z,61.59
2019-03-20T03:57:10.609Z,61.28
2019-03-20T03:59:59.408Z,61.43
2019-03-20T04:02:48.224Z,61.57
2019-03-20T04:05:37.422Z,61.18
2019-03-20T04:08:26.382Z,61.25
2019-03-20T04:11:14.432Z,61.33
2019-03-20T04:14:03.560Z,61.60
2019-03-20T04:16:51.946Z,61.71
2019-03-20T04:19:40.858Z,61.24
2019-03-20T04:22:29.475Z,61.19
2019-03-20T04:25:18.958Z,61.46
2019-03-20T04:28:06.784Z,60.98
2019-03-20T04:30:54.926Z,61.23
2019-03-20T04:33:43.719Z,61.29
2019-03-20T04:36:31.773Z,61.49
2019-03-20T04:39:20.835Z,61.49
2019-03-20T04:42:09.560Z,61.52
2019-03-20T04:44:58.168Z,61.71
2019-03-20T04:47:46.487Z,61.69
2019-03-20T04:50:35.340Z,61.79
2019-03-20T04:53:23.409Z,61.89
2019-03-20T04:56:12.697Z,62.11
2019-03-20T04:59:01.114Z,62.39
2019-03-20T05:01:49.892Z,62.61
2019-03-20T05:04:38.478Z,62.43
2019-03-20T05:07:27.210Z,62.11
2019-03-20T05:10:15.433Z,62.08
2019-03-20T05:13:04.351Z,61.99
2019-03-20T05:15:53.026Z,62.29
2019-03-20T05:18:41.888Z,62.69
2019-03-20T05:21:30.724Z,62.52
2019-03-20T05:24:19.247Z,62.47
2019-03-20T05:27:08.210Z,62.27
2019-03-20T05:29:57.177Z,62.41
2019-03-20T05:32:45.983Z,62.38
2019-03-20T05:35:34.565Z,62.69
2019-03-20T05:38:23.162Z,62.48
2019-03-20T05:41:12.096Z,62.13
2019-03-20T05:44:01.139Z,62.34
2019-03-20T05:46:49.668Z,62.36
2019-03-20T05:49:38.425Z,62.15
2019-03-20T05:52:26.876Z,62.06
2019-03-20T05:55:15.342Z,62.26
2019-03-20T05:58:04.173Z,62.36
2019-03-20T06:00:52.697Z,62.76
2019-03-20T06:03:41.339Z,63.34
2019-03-20T06:06:29.765Z,63.41
2019-03-20T06:09:18.395Z,63.42
2019-03-20T06:12:07.290Z,63.33
2019-03-20T06:14:55.925Z,63.31
2019-03-20T06:17:46.730Z,63.33
2019-03-20T06:20:34.390Z,63.63
2019-03-20T06:23:22.502Z,63.78
2019-03-20T06:26:11.564Z,63.93
2019-03-20T06:29:00.146Z,64.11
2019-03-20T06:31:48.380Z,63.76
2019-03-20T06:34:37.239Z,63.87
2019-03-20T06:37:32.548Z,64.21
2019-03-20T06:40:16.672Z,64.53
2019-03-20T06:43:05.739Z,64.60
2019-03-20T06:45:54.096Z,64.58
2019-03-20T06:48:44.255Z,64.68
2019-03-20T06:51:32.548Z,64.59
2019-03-20T06:54:20.850Z,64.69
2019-03-20T06:57:09.524Z,64.55
2019-03-20T07:00:48.076Z,64.69
2019-03-20T07:03:52.609Z,64.46
2019-03-20T07:06:49.169Z,64.18
2019-03-20T07:09:52.150Z,64.26
2019-03-20T07:12:40.536Z,64.91
2019-03-20T07:15:29.021Z,65.30
2019-03-20T07:18:18.224Z,65.87
2019-03-20T07:21:06.813Z,65.10
2019-03-20T07:23:55.639Z,64.80
2019-03-20T07:26:44.478Z,64.01
2019-03-20T07:29:33.250Z,63.48
2019-03-20T07:32:21.561Z,62.26
2019-03-20T07:35:10.109Z,62.57
2019-03-20T07:37:58.506Z,62.65
2019-03-20T07:40:47.542Z,62.67
2019-03-20T07:43:35.779Z,62.67
2019-03-20T07:46:24.433Z,61.66
2019-03-20T07:49:12.451Z,60.98
2019-03-20T07:52:01.125Z,60.65
2019-03-20T07:54:50.361Z,60.33
2019-03-20T07:57:39.188Z,59.55
2019-03-20T08:00:28.096Z,60.36
2019-03-20T08:03:17.015Z,59.98
2019-03-20T08:06:06.005Z,59.69
2019-03-20T08:08:54.176Z,57.48
2019-03-20T08:11:43.077Z,58.14
2019-03-20T08:14:31.499Z,57.55
2019-03-20T08:17:19.997Z,57.52
2019-03-20T08:20:10.185Z,56.31
2019-03-20T08:22:58.382Z,55.33
2019-03-20T08:25:47.028Z,53.70
2019-03-20T08:28:35.261Z,53.46
2019-03-20T08:31:24.295Z,53.16
2019-03-20T08:34:12.654Z,52.88
2019-03-20T08:37:02.443Z,52.98
2019-03-20T08:39:51.426Z,51.17
2019-03-20T08:42:40.563Z,51.89
2019-03-20T08:45:29.508Z,52.40
2019-03-20T08:48:17.766Z,50.48
2019-03-20T08:51:06.476Z,51.42
2019-03-20T08:53:56.345Z,51.63
2019-03-20T08:56:44.991Z,51.52
2019-03-20T08:59:34.181Z,50.01
2019-03-20T09:02:22.759Z,50.36
2019-03-20T09:05:11.341Z,49.73
2019-03-20T09:08:00.243Z,48.71
2019-03-20T09:10:49.181Z,48.01
2019-03-20T09:13:37.949Z,48.38
2019-03-20T09:16:26.339Z,48.58
2019-03-20T09:19:14.720Z,48.62
2019-03-20T09:22:03.590Z,46.34
2019-03-20T09:24:51.968Z,44.27
2019-03-20T09:27:40.960Z,42.78
2019-03-20T09:30:30.182Z,44.07
2019-03-20T09:33:19.250Z,42.53
2019-03-20T09:36:07.892Z,40.65
2019-03-20T09:38:56.246Z,41.60
2019-03-20T09:41:45.313Z,39.63
2019-03-20T09:44:34.097Z,38.97
2019-03-20T09:47:22.870Z,37.23
2019-03-20T09:50:12.978Z,34.92
2019-03-20T09:53:02.131Z,36.22
2019-03-20T09:55:50.565Z,36.69
2019-03-20T09:58:38.733Z,36.36
2019-03-20T10:01:28.082Z,36.94
2019-03-20T10:04:16.503Z,36.64
2019-03-20T10:07:05.115Z,35.62
2019-03-20T10:09:53.536Z,32.92
2019-03-20T10:12:42.442Z,35.26
2019-03-20T10:15:30.794Z,35.01
2019-03-20T10:18:19.295Z,34.22
2019-03-20T10:21:07.473Z,33.98
2019-03-20T10:23:56.807Z,34.36
2019-03-20T10:26:45.488Z,34.20
2019-03-20T10:29:33.954Z,34.92
2019-03-20T10:32:22.534Z,34.13
2019-03-20T10:35:11.701Z,34.90
2019-03-20T10:38:00.394Z,33.70
2019-03-20T10:40:50.349Z,34.19
2019-03-20T10:43:39.351Z,33.84
2019-03-20T10:46:28.027Z,34.23
2019-03-20T10:49:16.579Z,33.55
2019-03-20T10:52:05.550Z,33.29
2019-03-20T10:54:54.043Z,33.46
2019-03-20T10:57:43.162Z,33.75
2019-03-20T11:00:31.959Z,34.51
2019-03-20T11:03:20.645Z,34.33
2019-03-20T11:06:09.224Z,34.07
2019-03-20T11:08:57.763Z,35.21
2019-03-20T11:11:46.039Z,34.10
2019-03-20T11:14:34.675Z,34.71
2019-03-20T11:17:23.665Z,32.84
2019-03-20T11:20:13.543Z,34.43
2019-03-20T11:23:01.429Z,34.03
2019-03-20T11:25:50.567Z,32.04
2019-03-20T11:28:39.622Z,32.00
2019-03-20T11:31:28.274Z,32.00
2019-03-20T11:34:17.434Z,33.73
2019-03-20T11:37:05.900Z,35.63
2019-03-20T11:39:54.963Z,33.84
2019-03-20T11:42:43.651Z,33.24
2019-03-20T11:45:32.415Z,32.05
2019-03-20T11:48:20.965Z,30.80
2019-03-20T11:51:10.161Z,31.00
2019-03-20T11:54:01.542Z,30.91
2019-03-20T11:56:50.552Z,31.36
2019-03-20T11:59:38.787Z,33.01
2019-03-20T12:02:28.649Z,31.74
2019-03-20T12:05:17.654Z,30.53
2019-03-20T12:08:05.893Z,30.01
2019-03-20T12:10:54.706Z,30.34
2019-03-20T12:13:43.457Z,30.24
2019-03-20T12:16:32.404Z,31.26
2019-03-20T12:19:20.960Z,29.37
2019-03-20T12:22:10.229Z,31.11
2019-03-20T12:24:59.175Z,31.17
2019-03-20T12:27:47.871Z,30.83
2019-03-20T12:30:36.421Z,29.14
2019-03-20T12:33:25.087Z,31.51
2019-03-20T12:36:13.831Z,30.59
2019-03-20T12:39:02.470Z,29.92
2019-03-20T12:41:51.067Z,28.85
2019-03-20T12:44:39.612Z,28.69
2019-03-20T12:47:28.818Z,30.79
2019-03-20T12:50:17.458Z,28.48
2019-03-20T12:53:06.413Z,30.24
2019-03-20T12:55:58.700Z,30.08
2019-03-20T12:58:47.112Z,29.48
2019-03-20T13:01:36.416Z,30.07
2019-03-20T13:04:25.249Z,29.03
2019-03-20T13:07:17.895Z,28.89
2019-03-20T13:10:07.610Z,28.47
2019-03-20T13:12:56.868Z,28.15
2019-03-20T13:15:45.849Z,27.66
2019-03-20T13:18:34.138Z,29.42
2019-03-20T13:21:22.745Z,29.11
2019-03-20T13:24:11.038Z,28.16
2019-03-20T13:26:59.427Z,26.32
2019-03-20T13:29:51.051Z,26.19
2019-03-20T13:32:40.127Z,26.58
2019-03-20T13:35:28.300Z,27.66
2019-03-20T13:38:19.916Z,29.11
2019-03-20T13:41:08.714Z,29.50
2019-03-20T13:43:57.903Z,28.00
2019-03-20T13:46:47.123Z,28.08
2019-03-20T13:49:37.785Z,26.96
2019-03-20T13:52:26.370Z,26.04
2019-03-20T13:55:15.434Z,25.41
2019-03-20T13:58:04.773Z,26.53
2019-03-20T14:00:53.444Z,25.66
2019-03-20T14:03:42.378Z,27.09
2019-03-20T14:06:30.543Z,24.53
2019-03-20T14:09:19.108Z,23.44
2019-03-20T14:12:07.498Z,23.82
2019-03-20T14:14:56.599Z,22.03
2019-03-20T14:17:48.572Z,22.03
2019-03-20T14:20:37.155Z,22.20
2019-03-20T14:23:26.103Z,22.20
2019-03-20T14:26:14.514Z,20.48
2019-03-20T14:29:03.317Z,20.62
2019-03-20T14:31:52.259Z,21.34
2019-03-20T14:34:40.571Z,20.73
2019-03-20T14:37:28.727Z,21.87
2019-03-20T14:40:18.840Z,20.09
2019-03-20T14:43:07.375Z,21.06
2019-03-20T14:45:56.616Z,20.16
2019-03-20T14:48:45.454Z,20.88
2019-03-20T14:51:33.977Z,19.04
2019-03-20T14:54:22.867Z,20.23
2019-03-20T14:57:11.383Z,20.49
2019-03-20T14:59:59.498Z,20.42
2019-03-20T15:02:48.349Z,19.14
2019-03-20T15:05:37.402Z,19.70
2019-03-20T15:08:28.964Z,19.71
2019-03-20T15:11:18.125Z,20.28
2019-03-20T15:14:17.139Z,20.33
2019-03-20T15:17:06.156Z,20.10
2019-03-20T15:19:54.972Z,19.84
2019-03-20T15:22:44.033Z,19.30
2019-03-20T15:25:32.916Z,18.47
2019-03-20T15:28:21.585Z,18.42
2019-03-20T15:31:10.421Z,18.92
2019-03-20T15:33:59.208Z,19.17
2019-03-20T15:36:48.256Z,19.18
2019-03-20T15:39:36.997Z,20.24
2019-03-20T15:42:26.142Z,19.51
2019-03-20T15:45:15.293Z,20.23
2019-03-20T15:48:03.230Z,20.13
2019-03-20T15:50:52.255Z,20.46
2019-03-20T15:53:41.286Z,21.55
2019-03-20T15:56:30.155Z,22.03
2019-03-20T15:59:18.600Z,22.73
2019-03-20T16:02:07.041Z,22.46
2019-03-20T16:04:55.441Z,22.62
2019-03-20T16:07:44.877Z,22.15
2019-03-20T16:10:34.049Z,22.49
2019-03-20T16:13:22.698Z,22.77
2019-03-20T16:16:11.008Z,21.95
2019-03-20T16:18:59.632Z,21.47
2019-03-20T16:21:48.513Z,21.75
2019-03-20T16:24:37.841Z,22.77
2019-03-20T16:27:26.835Z,23.13
2019-03-20T16:30:20.153Z,24.64
2019-03-20T16:33:08.355Z,25.57
2019-03-20T16:35:56.810Z,25.57
2019-03-20T16:38:45.707Z,26.15
2019-03-20T16:41:33.844Z,26.16
2019-03-20T16:44:22.156Z,26.65
2019-03-20T16:47:11.493Z,27.16
2019-03-20T16:50:00.496Z,27.54
2019-03-20T16:52:49.037Z,27.26
2019-03-20T16:55:38.056Z,28.47
2019-03-20T16:58:26.906Z,29.60
2019-03-20T17:01:15.584Z,28.78
2019-03-20T17:04:04.434Z,28.73
2019-03-20T17:06:53.034Z,28.75
2019-03-20T17:09:41.706Z,28.95
2019-03-20T17:12:30.677Z,29.18
2019-03-20T17:15:21.057Z,30.22
2019-03-20T17:18:09.713Z,30.19
2019-03-20T17:20:58.465Z,30.88
2019-03-20T17:23:47.634Z,31.25
2019-03-20T17:26:36.371Z,30.92
2019-03-20T17:29:24.611Z,31.35
2019-03-20T17:32:12.938Z,31.68
2019-03-20T17:35:01.894Z,31.89
2019-03-20T17:37:50.962Z,32.64
2019-03-20T17:40:39.833Z,33.03
2019-03-20T17:43:31.312Z,32.85
2019-03-20T17:46:21.716Z,33.56
2019-03-20T17:49:10.857Z,34.07
2019-03-20T17:51:59.647Z,34.01
2019-03-20T17:54:48.536Z,33.91
2019-03-20T17:57:37.391Z,34.31
2019-03-20T18:00:40.683Z,33.82
2019-03-20T18:03:29.577Z,33.99
2019-03-20T18:06:18.925Z,34.05
2019-03-20T18:09:09.367Z,33.69
2019-03-20T18:11:58.726Z,34.22
2019-03-20T18:14:47.211Z,34.33
2019-03-20T18:17:36.520Z,34.29
2019-03-20T18:20:25.789Z,34.94
2019-03-20T18:23:14.944Z,35.35
2019-03-20T18:26:03.799Z,36.31
2019-03-20T18:28:52.763Z,36.01
2019-03-20T18:31:45.961Z,36.41
2019-03-20T18:34:32.231Z,36.32
2019-03-20T18:37:21.436Z,37.66
2019-03-20T18:40:11.988Z,36.97
2019-03-20T18:43:00.974Z,37.64
2019-03-20T18:45:52.406Z,38.33
2019-03-20T18:48:42.512Z,38.98
2019-03-20T18:51:31.543Z,39.16
2019-03-20T18:54:20.606Z,39.00
2019-03-20T18:57:09.505Z,38.91
2019-03-20T18:59:58.484Z,39.08
2019-03-20T19:02:47.097Z,39.02
2019-03-20T19:05:52.489Z,38.66
2019-03-20T19:08:41.769Z,38.66
2019-03-20T19:11:30.867Z,39.63
2019-03-20T19:14:20.387Z,40.43
2019-03-20T19:17:09.279Z,40.51
2019-03-20T19:19:58.204Z,41.27
2019-03-20T19:22:47.024Z,40.46
2019-03-20T19:25:38.981Z,40.86
2019-03-20T19:28:27.527Z,40.73
2019-03-20T19:31:17.107Z,41.16
2019-03-20T19:34:05.493Z,40.98
2019-03-20T19:36:54.573Z,41.98
2019-03-20T19:39:44.077Z,42.13
2019-03-20T19:42:33.058Z,41.89
2019-03-20T19:45:21.594Z,42.67
2019-03-20T19:48:10.979Z,42.51
2019-03-20T19:50:59.786Z,42.08
2019-03-20T19:53:48.824Z,42.55
2019-03-20T19:56:37.807Z,42.30
2019-03-20T19:59:26.841Z,42.58
2019-03-20T20:02:15.082Z,43.03
2019-03-20T20:05:15.028Z,42.13
2019-03-20T20:07:54.758Z,43.35
2019-03-20T20:10:43.983Z,43.02
2019-03-20T20:13:32.301Z,42.49
2019-03-20T20:16:21.026Z,42.91
2019-03-20T20:19:10.165Z,42.85
2019-03-20T20:21:58.613Z,43.59
2019-03-20T20:24:47.589Z,44.19
2019-03-20T20:27:36.372Z,43.58
2019-03-20T20:30:25.426Z,44.18
2019-03-20T20:33:14.595Z,45.02
2019-03-20T20:36:03.242Z,44.32
2019-03-20T20:38:51.845Z,44.55
2019-03-20T20:41:40.603Z,44.49
2019-03-20T20:44:29.771Z,44.32
2019-03-20T20:47:18.631Z,44.99
2019-03-20T20:50:07.817Z,45.46
2019-03-20T20:52:56.792Z,45.52
2019-03-20T20:55:46.187Z,45.82
2019-03-20T20:58:34.868Z,45.57
2019-03-20T21:01:23.272Z,45.78
2019-03-20T21:04:12.148Z,46.01
2019-03-20T21:07:00.900Z,46.28
2019-03-20T21:09:50.188Z,46.08
2019-03-20T21:12:39.566Z,46.44
2019-03-20T21:15:42.452Z,47.03
2019-03-20T21:19:15.853Z,47.09
2019-03-20T21:22:43.254Z,47.04
2019-03-20T21:25:32.191Z,47.25
2019-03-20T21:29:05.938Z,47.28
2019-03-20T21:32:00.521Z,47.89
2019-03-20T21:35:39.120Z,48.27
2019-03-20T21:38:25.765Z,49.22
2019-03-20T21:42:11.137Z,49.33
2019-03-20T21:45:31.644Z,49.36
2019-03-20T21:48:20.917Z,49.79
2019-03-20T21:51:17.943Z,49.61
2019-03-20T21:54:44.482Z,49.51
2019-03-20T21:58:04.585Z,49.57
2019-03-20T22:01:32.087Z,49.63
2019-03-20T22:04:20.820Z,49.78
2019-03-20T22:07:10.896Z,50.01
2019-03-20T22:10:41.156Z,49.86
2019-03-20T22:13:37.052Z,50.14
2019-03-20T22:17:11.735Z,50.41
2019-03-20T22:20:13.390Z,50.52
2019-03-20T22:23:30.753Z,50.84
2019-03-20T22:26:55.260Z,51.24
2019-03-20T22:29:44.599Z,51.48
2019-03-20T22:33:23.719Z,50.97
2019-03-20T22:36:26.929Z,51.29
2019-03-20T22:39:54.499Z,50.91
2019-03-20T22:42:51.759Z,51.26
2019-03-20T22:46:17.449Z,51.38
2019-03-20T22:49:56.223Z,51.78
2019-03-20T22:53:12.082Z,51.24
2019-03-20T22:56:18.760Z,51.25
2019-03-20T22:59:08.168Z,51.35
2019-03-20T23:02:27.544Z,51.60
2019-03-20T23:05:16.445Z,52.17
2019-03-20T23:08:12.449Z,52.44
2019-03-20T23:11:01.416Z,52.28
2019-03-20T23:13:50.517Z,52.01
2019-03-20T23:16:39.524Z,52.39
2019-03-20T23:19:29.024Z,52.16
2019-03-20T23:22:18.089Z,51.83
2019-03-20T23:25:07.691Z,51.94
2019-03-20T23:27:56.935Z,51.94
2019-03-20T23:30:45.950Z,52.41
2019-03-20T23:33:34.976Z,52.49
2019-03-20T23:36:24.527Z,51.97
2019-03-20T23:39:13.588Z,52.22
2019-03-20T23:42:02.760Z,52.35
2019-03-20T23:44:51.779Z,52.58
2019-03-20T23:48:00.258Z,52.72
2019-03-20T23:50:51.763Z,52.37
2019-03-20T23:53:45.173Z,52.70
2019-03-20T23:56:35.288Z,53.11
2019-03-20T23:59:23.990Z,52.76
